Terminal Aerodrome Forecast
Issued by NWS

Home | Current Version | Previous Version | Text Only | Print | Product List | Glossary On
Versions: 1 2 3 4 5 6 7 8 9 10 11 12 13 14 15 16 17 18 19 20 21 22 23
000
FTUS46 KHNX 281120
TAFMER
TAF
KMER 281120Z 2812/2912 00000KT 1/4SM FG VV001
     FM281900 VRB03KT 2SM BR BKN200
     FM282200 33005KT 4SM HZ BKN200
     FM290600 VRB03KT 1SM BR FEW001 BKN200=

USA.gov is the U.S. government's official web portal to all federal, state and local government web resources and services.